createdAt,value
2018-05-18T00:00:50.170Z,15.30
2018-05-18T00:03:18.037Z,15.20
2018-05-18T00:05:46.652Z,15.20
2018-05-18T00:08:15.409Z,15.20
2018-05-18T00:10:43.275Z,15.20
2018-05-18T00:13:11.033Z,15.20
2018-05-18T00:15:38.905Z,15.20
2018-05-18T00:18:08.477Z,15.20
2018-05-18T00:20:38.052Z,15.20
2018-05-18T00:23:08.601Z,15.20
2018-05-18T00:25:36.516Z,15.10
2018-05-18T00:28:04.488Z,15.20
2018-05-18T00:30:32.351Z,15.20
2018-05-18T00:33:00.320Z,15.20
2018-05-18T00:35:28.337Z,15.10
2018-05-18T00:37:56.973Z,15.10
2018-05-18T00:40:24.943Z,15.10
2018-05-18T00:42:52.810Z,15.10
2018-05-18T00:45:20.780Z,15.10
2018-05-18T00:47:48.646Z,15.10
2018-05-18T00:50:16.615Z,15.00
2018-05-18T00:52:44.583Z,15.00
2018-05-18T00:55:24.431Z,15.00
2018-05-18T00:57:52.399Z,15.00
2018-05-18T01:00:20.271Z,15.00
2018-05-18T01:02:48.236Z,15.00
2018-05-18T01:05:16.102Z,15.00
2018-05-18T01:07:44.070Z,15.00
2018-05-18T01:10:11.937Z,15.00
2018-05-18T01:12:39.804Z,15.00
2018-05-18T01:15:07.772Z,14.90
2018-05-18T01:17:35.639Z,14.90
2018-05-18T01:20:03.609Z,14.90
2018-05-18T01:22:31.475Z,14.90
2018-05-18T01:24:59.342Z,14.80
2018-05-18T01:27:28.028Z,14.90
2018-05-18T01:29:55.893Z,14.90
2018-05-18T01:32:23.760Z,14.90
2018-05-18T01:34:51.628Z,14.90
2018-05-18T01:37:19.425Z,14.90
2018-05-18T01:39:48.175Z,14.90
2018-05-18T01:42:15.939Z,14.90
2018-05-18T01:44:43.810Z,14.90
2018-05-18T01:47:11.677Z,14.90
2018-05-18T01:49:39.543Z,15.00
2018-05-18T01:52:07.338Z,15.00
2018-05-18T01:54:35.993Z,15.00
2018-05-18T01:57:03.962Z,15.00
2018-05-18T01:59:31.931Z,15.00
2018-05-18T02:01:59.724Z,15.00
2018-05-18T02:04:27.766Z,15.00
2018-05-18T02:06:55.633Z,15.10
2018-05-18T02:09:23.500Z,15.10
2018-05-18T02:11:51.367Z,15.10
2018-05-18T02:14:19.160Z,15.10
2018-05-18T02:16:47.099Z,15.10
2018-05-18T02:19:14.966Z,15.10
2018-05-18T02:21:42.832Z,15.10
2018-05-18T02:24:10.698Z,15.00
2018-05-18T02:26:38.565Z,15.00
2018-05-18T02:29:06.432Z,15.00
2018-05-18T02:31:34.299Z,15.00
2018-05-18T02:34:02.268Z,15.00
2018-05-18T02:36:30.135Z,14.90
2018-05-18T02:38:58.011Z,14.80
2018-05-18T02:41:25.869Z,14.80
2018-05-18T02:43:53.837Z,14.80
2018-05-18T02:46:21.704Z,14.70
2018-05-18T02:48:49.566Z,14.70
2018-05-18T02:51:17.538Z,14.60
2018-05-18T02:53:45.405Z,14.70
2018-05-18T02:56:13.271Z,14.60
2018-05-18T02:58:41.138Z,14.60
2018-05-18T03:01:09.005Z,14.60
2018-05-18T03:03:36.871Z,14.60
2018-05-18T03:06:04.665Z,14.60
2018-05-18T03:08:32.708Z,14.60
2018-05-18T03:11:00.507Z,14.60
2018-05-18T03:13:29.164Z,14.70
2018-05-18T03:15:57.023Z,14.60
2018-05-18T03:18:24.890Z,14.60
2018-05-18T03:20:52.756Z,14.60
2018-05-18T03:23:20.623Z,14.60
2018-05-18T03:25:48.489Z,14.70
2018-05-18T03:28:16.355Z,14.60
2018-05-18T03:30:44.221Z,14.70
2018-05-18T03:33:12.089Z,14.70
2018-05-18T03:35:39.954Z,14.70
2018-05-18T03:38:07.709Z,14.70
2018-05-18T03:40:35.586Z,14.70
2018-05-18T03:43:03.454Z,14.70
2018-05-18T03:45:31.319Z,14.70
2018-05-18T03:47:59.186Z,14.70
2018-05-18T03:50:27.049Z,14.70
2018-05-18T03:52:54.919Z,14.70
2018-05-18T03:55:22.785Z,14.70
2018-05-18T03:57:50.652Z,14.70
2018-05-18T04:00:18.550Z,14.70
2018-05-18T04:02:59.188Z,14.70
2018-05-18T04:05:39.646Z,14.70
2018-05-18T04:08:19.393Z,14.70
2018-05-18T04:10:47.258Z,14.70
2018-05-18T04:13:15.128Z,14.70
2018-05-18T04:15:42.996Z,14.70
2018-05-18T04:18:11.680Z,14.70
2018-05-18T04:20:39.646Z,14.70
2018-05-18T04:23:07.513Z,14.70
2018-05-18T04:25:35.381Z,14.70
2018-05-18T04:28:03.246Z,14.70
2018-05-18T04:30:31.126Z,14.70
2018-05-18T04:32:59.794Z,14.70
2018-05-18T04:35:27.665Z,14.70
2018-05-18T04:37:55.530Z,14.70
2018-05-18T04:40:23.398Z,14.60
2018-05-18T04:42:51.193Z,14.60
2018-05-18T04:45:19.131Z,14.60
2018-05-18T04:47:46.997Z,14.60
2018-05-18T04:50:14.867Z,14.60
2018-05-18T04:52:42.731Z,14.60
2018-05-18T04:55:10.598Z,14.60
2018-05-18T04:57:38.466Z,14.60
2018-05-18T05:00:06.360Z,14.60
2018-05-18T05:02:35.016Z,14.70
2018-05-18T05:05:02.985Z,14.70
2018-05-18T05:07:30.851Z,14.80
2018-05-18T05:09:58.717Z,14.90
2018-05-18T05:12:26.584Z,15.00
2018-05-18T05:14:54.451Z,15.00
2018-05-18T05:17:22.317Z,15.10
2018-05-18T05:19:50.184Z,15.10
2018-05-18T05:22:18.051Z,15.20
2018-05-18T05:24:45.845Z,15.20
2018-05-18T05:27:14.500Z,15.40
2018-05-18T05:29:42.367Z,15.30
2018-05-18T05:32:10.161Z,15.40
2018-05-18T05:34:39.534Z,15.50
2018-05-18T05:37:07.400Z,15.50
2018-05-18T05:39:35.267Z,15.50
2018-05-18T05:42:03.236Z,15.60
2018-05-18T05:44:31.102Z,15.70
2018-05-18T05:46:59.043Z,15.80
2018-05-18T05:49:27.655Z,16.00
2018-05-18T05:51:55.449Z,16.00
2018-05-18T05:54:24.105Z,16.30
2018-05-18T05:56:51.972Z,16.30
2018-05-18T05:59:19.764Z,16.40
2018-05-18T06:01:47.704Z,16.50
2018-05-18T06:04:15.570Z,16.60
2018-05-18T06:06:43.365Z,16.70
2018-05-18T06:09:11.410Z,16.80
2018-05-18T06:11:40.198Z,16.90
2018-05-18T06:14:08.163Z,16.90
2018-05-18T06:16:36.030Z,16.90
2018-05-18T06:19:03.999Z,16.80
2018-05-18T06:21:31.792Z,16.60
2018-05-18T06:23:59.662Z,16.60
2018-05-18T06:26:27.598Z,16.50
2018-05-18T06:28:55.393Z,16.50
2018-05-18T06:31:23.231Z,16.50
2018-05-18T06:33:52.194Z,16.50
2018-05-18T06:36:20.090Z,16.60
2018-05-18T06:38:47.957Z,16.70
2018-05-18T06:41:15.865Z,16.70
2018-05-18T06:43:44.508Z,16.80
2018-05-18T06:46:12.479Z,16.80
2018-05-18T06:48:40.346Z,16.90
2018-05-18T06:51:08.208Z,17.00
2018-05-18T06:53:36.075Z,17.00
2018-05-18T06:56:04.048Z,17.10
2018-05-18T06:58:31.910Z,17.30
2018-05-18T07:00:59.879Z,17.40
2018-05-18T07:03:28.565Z,19.50
2018-05-18T07:05:56.430Z,19.50
2018-05-18T07:08:24.224Z,21.10
2018-05-18T07:10:52.164Z,21.50
2018-05-18T07:13:20.031Z,21.60
2018-05-18T07:15:47.897Z,21.30
2018-05-18T07:18:15.764Z,21.10
2018-05-18T07:20:43.631Z,20.80
2018-05-18T07:23:11.500Z,21.20
2018-05-18T07:25:39.364Z,21.80
2018-05-18T07:28:07.160Z,23.10
2018-05-18T07:30:35.740Z,25.20
2018-05-18T07:33:04.397Z,25.30
2018-05-18T07:35:32.264Z,25.30
2018-05-18T07:38:00.056Z,25.80
2018-05-18T07:40:28.022Z,26.00
2018-05-18T07:42:56.076Z,26.60
2018-05-18T07:45:24.037Z,27.40
2018-05-18T07:47:51.904Z,28.10
2018-05-18T07:50:19.766Z,28.80
2018-05-18T07:52:47.637Z,29.20
2018-05-18T07:55:15.430Z,29.90
2018-05-18T07:57:43.298Z,29.90
2018-05-18T08:00:11.237Z,30.50
2018-05-18T08:02:39.104Z,30.60
2018-05-18T08:05:07.072Z,30.40
2018-05-18T08:07:34.939Z,30.50
2018-05-18T08:10:02.806Z,31.10
2018-05-18T08:12:30.674Z,30.80
2018-05-18T08:14:58.603Z,31.30
2018-05-18T08:17:27.328Z,31.40
2018-05-18T08:19:55.121Z,31.40
2018-05-18T08:22:23.098Z,31.50
2018-05-18T08:24:51.747Z,31.70
2018-05-18T08:27:23.613Z,31.80
2018-05-18T08:29:51.473Z,31.70
2018-05-18T08:32:19.339Z,31.60
2018-05-18T08:34:47.206Z,31.30
2018-05-18T08:37:15.072Z,31.90
2018-05-18T08:39:43.043Z,32.00
2018-05-18T08:42:10.908Z,32.20
2018-05-18T08:44:38.776Z,32.00
2018-05-18T08:47:06.642Z,31.50
2018-05-18T08:49:34.509Z,31.20
2018-05-18T08:52:02.376Z,31.10
2018-05-18T08:54:30.243Z,31.20
2018-05-18T08:56:58.108Z,30.90
2018-05-18T08:59:25.972Z,30.90
2018-05-18T09:01:53.841Z,31.10
2018-05-18T09:04:21.708Z,31.00
2018-05-18T09:06:49.677Z,31.10
2018-05-18T09:09:17.481Z,31.10
2018-05-18T09:11:46.229Z,30.80
2018-05-18T09:14:14.096Z,30.80
2018-05-18T09:16:41.962Z,30.80
2018-05-18T09:19:09.731Z,30.40
2018-05-18T09:21:37.594Z,30.60
2018-05-18T09:24:05.464Z,31.00
2018-05-18T09:26:33.351Z,31.10
2018-05-18T09:29:02.012Z,31.40
2018-05-18T09:31:29.981Z,31.40
2018-05-18T09:33:57.791Z,30.80
2018-05-18T09:36:26.357Z,29.90
2018-05-18T09:38:54.194Z,29.90
2018-05-18T09:41:22.061Z,29.40
2018-05-18T09:43:49.857Z,29.50
2018-05-18T09:46:18.511Z,28.30
2018-05-18T09:48:46.479Z,28.30
2018-05-18T09:51:14.244Z,27.90
2018-05-18T09:53:42.111Z,28.20
2018-05-18T09:56:10.079Z,28.40
2018-05-18T09:58:37.949Z,28.30
2018-05-18T10:01:05.813Z,28.60
2018-05-18T10:03:34.131Z,29.20
2018-05-18T10:06:02.877Z,29.00
2018-05-18T10:08:30.805Z,29.00
2018-05-18T10:10:58.712Z,28.90
2018-05-18T10:13:26.580Z,28.60
2018-05-18T10:15:54.445Z,28.30
2018-05-18T10:18:22.308Z,28.50
2018-05-18T10:20:50.281Z,28.80
2018-05-18T10:23:18.147Z,29.20
2018-05-18T10:25:46.016Z,29.20
2018-05-18T10:28:13.982Z,28.80
2018-05-18T10:30:41.849Z,28.40
2018-05-18T10:33:09.715Z,28.10
2018-05-18T10:35:37.579Z,27.80
2018-05-18T10:38:05.448Z,27.50
2018-05-18T10:40:33.315Z,27.20
2018-05-18T10:43:01.182Z,26.90
2018-05-18T10:45:29.104Z,26.60
2018-05-18T10:47:57.734Z,26.40
2018-05-18T10:50:25.707Z,26.40
2018-05-18T10:52:53.774Z,26.50
2018-05-18T10:55:21.568Z,26.40
2018-05-18T10:57:49.437Z,26.20
2018-05-18T11:00:18.091Z,26.10
2018-05-18T11:02:45.884Z,26.00
2018-05-18T11:05:13.723Z,26.10
2018-05-18T11:07:42.407Z,26.00
2018-05-18T11:10:10.205Z,26.00
2018-05-18T11:12:38.143Z,25.90
2018-05-18T11:15:06.008Z,25.80
2018-05-18T11:17:33.875Z,25.70
2018-05-18T11:20:01.710Z,25.40
2018-05-18T11:22:29.608Z,25.40
2018-05-18T11:24:57.472Z,25.30
2018-05-18T11:27:25.343Z,25.20
2018-05-18T11:29:53.208Z,25.20
2018-05-18T11:32:21.002Z,25.20
2018-05-18T11:34:48.939Z,25.20
2018-05-18T11:37:16.806Z,25.30
2018-05-18T11:39:44.671Z,25.20
2018-05-18T11:42:12.539Z,25.10
2018-05-18T11:44:40.405Z,25.10
2018-05-18T11:47:08.171Z,25.10
2018-05-18T11:49:36.036Z,25.00
2018-05-18T11:52:04.008Z,25.10
2018-05-18T11:54:31.872Z,25.00
2018-05-18T11:56:59.841Z,25.10
2018-05-18T11:59:27.707Z,25.20
2018-05-18T12:01:55.575Z,25.40
2018-05-18T12:04:23.443Z,25.40
2018-05-18T12:06:51.307Z,25.40
2018-05-18T12:09:19.175Z,25.50
2018-05-18T12:11:47.043Z,25.50
2018-05-18T12:14:14.907Z,25.50
2018-05-18T12:16:42.776Z,25.50
2018-05-18T12:19:11.463Z,25.30
2018-05-18T12:21:39.370Z,25.30
2018-05-18T12:24:08.020Z,25.00
2018-05-18T12:26:35.878Z,25.00
2018-05-18T12:29:03.847Z,24.80
2018-05-18T12:31:35.116Z,24.80
2018-05-18T12:34:03.764Z,24.70
2018-05-18T12:36:34.252Z,24.70
2018-05-18T12:39:04.171Z,24.60
2018-05-18T12:41:34.118Z,24.50
2018-05-18T12:44:05.104Z,24.40
2018-05-18T12:46:33.864Z,24.10
2018-05-18T12:49:01.730Z,24.10
2018-05-18T12:51:29.703Z,24.00
2018-05-18T12:53:57.672Z,23.90
2018-05-18T12:56:26.355Z,23.80
2018-05-18T12:58:54.323Z,23.80
2018-05-18T13:01:22.292Z,23.80
2018-05-18T13:03:50.158Z,23.70
2018-05-18T13:06:18.008Z,23.60
2018-05-18T13:08:45.893Z,23.50
2018-05-18T13:11:13.757Z,23.40
2018-05-18T13:13:41.628Z,23.40
2018-05-18T13:16:09.416Z,23.30
2018-05-18T13:18:37.255Z,23.30
2018-05-18T13:21:05.120Z,23.20
2018-05-18T13:23:32.988Z,23.10
2018-05-18T13:26:00.850Z,23.10
2018-05-18T13:28:28.721Z,23.10
2018-05-18T13:30:56.588Z,23.00
2018-05-18T13:33:24.658Z,23.00
2018-05-18T13:35:52.527Z,23.00
2018-05-18T13:38:20.317Z,23.00
2018-05-18T13:40:48.258Z,22.90
2018-05-18T13:43:16.052Z,22.80
2018-05-18T13:45:43.994Z,22.80
2018-05-18T13:48:11.863Z,22.70
2018-05-18T13:50:39.725Z,22.70
2018-05-18T13:53:07.691Z,22.70
2018-05-18T13:55:35.562Z,22.70
2018-05-18T13:58:03.529Z,22.70
2018-05-18T14:00:31.294Z,22.60
2018-05-18T14:02:59.160Z,22.70
2018-05-18T14:05:27.034Z,22.60
2018-05-18T14:07:54.896Z,22.60
2018-05-18T14:10:22.861Z,22.60
2018-05-18T14:12:50.728Z,22.60
2018-05-18T14:15:18.519Z,22.60
2018-05-18T14:17:46.284Z,22.50
2018-05-18T14:20:14.225Z,22.50
2018-05-18T14:22:42.092Z,22.50
2018-05-18T14:25:09.954Z,22.40
2018-05-18T14:27:37.927Z,22.40
2018-05-18T14:30:05.897Z,22.40
2018-05-18T14:32:33.689Z,22.40
2018-05-18T14:35:01.454Z,22.40
2018-05-18T14:37:29.292Z,22.50
2018-05-18T14:39:57.158Z,22.60
2018-05-18T14:42:25.028Z,22.70
2018-05-18T14:44:52.891Z,22.80
2018-05-18T14:47:20.757Z,23.00
2018-05-18T14:49:48.630Z,23.10
2018-05-18T14:52:16.491Z,23.20
2018-05-18T14:54:44.357Z,23.20
2018-05-18T14:57:13.043Z,23.30
2018-05-18T14:59:40.807Z,23.30
2018-05-18T15:02:08.674Z,23.30
2018-05-18T15:04:36.540Z,23.30
2018-05-18T15:07:04.408Z,23.40
2018-05-18T15:09:32.273Z,23.30
2018-05-18T15:12:00.208Z,23.30
2018-05-18T15:14:28.928Z,22.90
2018-05-18T15:16:56.740Z,22.90
2018-05-18T15:19:25.378Z,22.50
2018-05-18T15:21:53.244Z,22.40
2018-05-18T15:24:21.213Z,22.30
2018-05-18T15:26:49.081Z,22.10
2018-05-18T15:29:16.946Z,22.00
2018-05-18T15:31:44.806Z,21.90
2018-05-18T15:34:12.782Z,21.80
2018-05-18T15:36:40.648Z,21.70
2018-05-18T15:39:08.515Z,21.70
2018-05-18T15:41:36.381Z,21.70
2018-05-18T15:44:04.171Z,21.70
2018-05-18T15:46:32.012Z,21.80
2018-05-18T15:48:59.881Z,21.80
2018-05-18T15:51:27.745Z,21.90
2018-05-18T15:53:55.538Z,21.80
2018-05-18T15:56:24.195Z,21.70
2018-05-18T15:58:52.061Z,21.70
2018-05-18T16:01:19.928Z,21.60
2018-05-18T16:03:47.681Z,21.50
2018-05-18T16:06:15.433Z,21.50
2018-05-18T16:08:43.228Z,21.60
2018-05-18T16:11:11.087Z,21.60
2018-05-18T16:13:38.954Z,21.70
2018-05-18T16:16:06.757Z,21.60
2018-05-18T16:18:35.281Z,21.50
2018-05-18T16:21:03.044Z,21.50
2018-05-18T16:23:30.856Z,21.30
2018-05-18T16:25:58.609Z,21.20
2018-05-18T16:28:26.357Z,21.10
2018-05-18T16:30:54.124Z,21.00
2018-05-18T16:33:22.698Z,20.80
2018-05-18T16:35:50.637Z,20.80
2018-05-18T16:38:18.991Z,20.70
2018-05-18T16:40:47.524Z,20.60
2018-05-18T16:43:15.283Z,20.60
2018-05-18T16:45:43.597Z,20.50
2018-05-18T16:48:11.955Z,20.50
2018-05-18T16:50:39.667Z,20.40
2018-05-18T16:53:08.185Z,20.30
2018-05-18T16:55:35.944Z,20.30
2018-05-18T16:58:03.729Z,20.20
2018-05-18T17:00:31.501Z,20.10
2018-05-18T17:02:59.371Z,20.10
2018-05-18T17:05:27.266Z,20.10
2018-05-18T17:07:55.837Z,20.00
2018-05-18T17:10:23.609Z,19.90
2018-05-18T17:12:52.125Z,19.80
2018-05-18T17:15:20.113Z,19.70
2018-05-18T17:17:48.912Z,19.70
2018-05-18T17:20:17.391Z,19.60
2018-05-18T17:22:45.143Z,19.40
2018-05-18T17:25:13.023Z,19.30
2018-05-18T17:27:41.810Z,19.20
2018-05-18T17:30:10.082Z,19.20
2018-05-18T17:32:38.170Z,19.10
2018-05-18T17:35:05.929Z,19.00
2018-05-18T17:37:33.684Z,18.90
2018-05-18T17:40:01.434Z,18.70
2018-05-18T17:42:29.742Z,18.60
2018-05-18T17:44:57.817Z,18.60
2018-05-18T17:47:25.874Z,18.50
2018-05-18T17:49:54.683Z,18.30
2018-05-18T17:52:23.017Z,18.30
2018-05-18T17:54:50.920Z,18.20
2018-05-18T17:57:19.570Z,18.10
2018-05-18T17:59:47.457Z,18.10
2018-05-18T18:02:15.209Z,18.10
2018-05-18T18:04:42.984Z,18.10
2018-05-18T18:07:10.951Z,18.10
2018-05-18T18:09:39.529Z,18.10
2018-05-18T18:12:07.451Z,18.10
2018-05-18T18:14:36.592Z,18.00
2018-05-18T18:17:04.814Z,18.00
2018-05-18T18:19:33.333Z,17.90
2018-05-18T18:22:01.490Z,17.90
2018-05-18T18:24:29.398Z,17.90
2018-05-18T18:26:57.188Z,17.90
2018-05-18T18:29:26.462Z,17.80
2018-05-18T18:31:54.256Z,17.80
2018-05-18T18:34:22.126Z,17.70
2018-05-18T18:36:50.778Z,17.60
2018-05-18T18:39:18.533Z,17.60
2018-05-18T18:41:46.409Z,17.50
2018-05-18T18:44:14.164Z,17.50
2018-05-18T18:46:42.025Z,17.40
2018-05-18T18:49:09.888Z,17.40
2018-05-18T18:51:37.629Z,17.30
2018-05-18T18:54:05.383Z,17.30
2018-05-18T18:56:34.106Z,17.30
2018-05-18T18:59:01.938Z,17.20
2018-05-18T19:01:30.448Z,17.20
2018-05-18T19:03:58.197Z,17.20
2018-05-18T19:06:25.958Z,17.20
2018-05-18T19:08:53.701Z,17.10
2018-05-18T19:11:22.223Z,17.10
2018-05-18T19:13:49.972Z,17.10
2018-05-18T19:16:17.734Z,17.10
2018-05-18T19:18:45.910Z,17.10
2018-05-18T19:21:13.970Z,17.00
2018-05-18T19:23:41.720Z,17.00
2018-05-18T19:26:10.364Z,16.90
2018-05-18T19:28:38.228Z,16.90
2018-05-18T19:31:06.023Z,16.90
2018-05-18T19:33:33.811Z,16.90
2018-05-18T19:36:02.352Z,16.80
2018-05-18T19:38:30.103Z,16.70
2018-05-18T19:40:57.849Z,16.70
2018-05-18T19:43:25.599Z,16.70
2018-05-18T19:45:53.344Z,16.60
2018-05-18T19:48:21.876Z,16.60
2018-05-18T19:50:49.758Z,16.60
2018-05-18T19:53:17.677Z,16.50
2018-05-18T19:55:45.818Z,16.50
2018-05-18T19:58:13.581Z,16.50
2018-05-18T20:00:41.329Z,16.50
2018-05-18T20:03:09.089Z,16.40
2018-05-18T20:05:36.835Z,16.40
2018-05-18T20:08:05.008Z,16.40
2018-05-18T20:10:32.758Z,16.40
2018-05-18T20:13:00.706Z,16.40
2018-05-18T20:15:29.464Z,16.40
2018-05-18T20:17:57.213Z,16.40
2018-05-18T20:20:25.316Z,16.30
2018-05-18T20:22:54.705Z,16.30
2018-05-18T20:25:23.151Z,16.30
2018-05-18T20:27:50.990Z,16.30
2018-05-18T20:30:18.764Z,16.30
2018-05-18T20:32:47.166Z,16.20
2018-05-18T20:35:14.912Z,16.20
2018-05-18T20:37:42.658Z,16.20
2018-05-18T20:40:10.653Z,16.20
2018-05-18T20:42:38.417Z,16.20
2018-05-18T20:45:06.271Z,16.10
2018-05-18T20:47:34.769Z,16.10
2018-05-18T20:50:02.525Z,16.10
2018-05-18T20:52:30.277Z,16.10
2018-05-18T20:54:58.024Z,16.10
2018-05-18T20:57:25.789Z,16.10
2018-05-18T20:59:53.638Z,16.10
2018-05-18T21:02:22.176Z,16.00
2018-05-18T21:04:49.929Z,16.00
2018-05-18T21:07:17.698Z,16.00
2018-05-18T21:09:45.446Z,16.00
2018-05-18T21:12:13.208Z,16.00
2018-05-18T21:14:40.958Z,16.00
2018-05-18T21:17:08.716Z,16.10
2018-05-18T21:19:37.246Z,16.00
2018-05-18T21:22:05.000Z,16.10
2018-05-18T21:24:32.752Z,16.10
2018-05-18T21:27:00.501Z,16.00
2018-05-18T21:29:28.249Z,16.10
2018-05-18T21:31:56.769Z,16.10
2018-05-18T21:34:24.579Z,16.10
2018-05-18T21:36:53.126Z,16.10
2018-05-18T21:39:20.875Z,16.10
2018-05-18T21:41:48.629Z,16.10
2018-05-18T21:44:16.386Z,16.10
2018-05-18T21:46:44.137Z,16.20
2018-05-18T21:49:12.055Z,16.20
2018-05-18T21:51:39.919Z,16.20
2018-05-18T21:54:07.890Z,16.20
2018-05-18T21:56:35.752Z,16.20
2018-05-18T21:59:03.618Z,16.20
2018-05-18T22:01:31.485Z,16.20
2018-05-18T22:03:59.357Z,16.20
2018-05-18T22:06:27.264Z,16.20
2018-05-18T22:08:55.904Z,16.20
2018-05-18T22:11:23.778Z,16.20
2018-05-18T22:13:52.381Z,16.20
2018-05-18T22:16:20.425Z,16.10
2018-05-18T22:18:48.394Z,16.20
2018-05-18T22:21:16.261Z,16.20
2018-05-18T22:23:44.010Z,16.20
2018-05-18T22:26:11.764Z,16.10
2018-05-18T22:28:39.517Z,16.10
2018-05-18T22:31:07.265Z,16.10
2018-05-18T22:33:35.772Z,16.10
2018-05-18T22:36:03.529Z,16.10
2018-05-18T22:38:31.273Z,16.10
2018-05-18T22:40:59.799Z,16.10
2018-05-18T22:43:27.543Z,16.10
2018-05-18T22:45:55.293Z,16.00
2018-05-18T22:48:23.054Z,16.00
2018-05-18T22:50:51.584Z,16.00
2018-05-18T22:53:19.345Z,16.00
2018-05-18T22:55:47.130Z,16.10
2018-05-18T22:58:14.880Z,16.00
2018-05-18T23:00:42.634Z,16.00
2018-05-18T23:03:10.399Z,16.10
2018-05-18T23:05:38.158Z,16.10
2018-05-18T23:08:05.908Z,16.10
2018-05-18T23:10:33.668Z,16.10
2018-05-18T23:13:01.457Z,16.00
2018-05-18T23:15:29.213Z,16.00
2018-05-18T23:17:56.961Z,16.00
2018-05-18T23:20:24.713Z,16.00
2018-05-18T23:22:52.546Z,16.00
2018-05-18T23:25:21.069Z,15.90
2018-05-18T23:27:48.819Z,15.90
2018-05-18T23:30:16.562Z,15.90
2018-05-18T23:32:45.079Z,15.90
2018-05-18T23:35:12.837Z,15.80
2018-05-18T23:37:40.668Z,15.90
2018-05-18T23:40:09.321Z,15.80
2018-05-18T23:42:37.685Z,15.80
2018-05-18T23:45:06.497Z,15.80
2018-05-18T23:47:34.383Z,15.80
2018-05-18T23:50:03.040Z,15.70
2018-05-18T23:52:30.908Z,15.70
2018-05-18T23:54:58.773Z,15.70
2018-05-18T23:57:26.743Z,15.70
2018-05-18T23:59:55.529Z,15.60
